Savage Integrity — WDG5472 — position and weather

sailwx.info

Track history (hours):
 
Tides and Currents Weather Stations Pressure Air Temp Water Temp Dewpoint Dewpoint Depression Visibility Wind Speed Wind Dir Waves Ship Positions

Savage Integrity

Owner: Savage Inland Marine, Gibson, LA. More information available from US FCC via Universal Licensing System and Coast Guard Vessel Documentation Center.

Last reported at 2018-Feb-23 02:30 UTC. Time now 2018-Feb-23 02:37 UTC.
Position N 29°58' W 093°51'.

Length 25 m; draft 2.9 m.

Type: Towing. MMSI: 367547030.

Date/timePositionNaut miles runAvg speedWind from/ knotsBaromVisibWave heightAir tempDewpointWater temp
2018-Feb-23 02:30N 29°58' W 093°51'0 0.0
2018-Feb-23 02:00N 29°58' W 093°51'0 0.0
2018-Feb-23 01:30N 29°58' W 093°51'0 0.0
2018-Feb-23 01:00N 29°58' W 093°51'0 0.0
2018-Feb-23 00:30N 29°58' W 093°51'0 0.0
2018-Feb-23 00:00N 29°58' W 093°51'0 0.0
2018-Feb-22 23:30N 29°58' W 093°51'0 0.0
2018-Feb-22 23:00N 29°58' W 093°51'0 0.0
2018-Feb-22 22:30N 29°58' W 093°51'0 0.0
2018-Feb-22 22:00N 29°58' W 093°51'0 0.0
2018-Feb-22 21:30N 29°58' W 093°51'0 0.0
2018-Feb-22 21:01N 29°58' W 093°51'0 0.0
2018-Feb-22 20:31N 29°58' W 093°51'0 0.0
2018-Feb-22 20:00N 29°58' W 093°51'0 0.0
2018-Feb-22 19:30N 29°58' W 093°51'0 0.0
2018-Feb-22 19:00N 29°58' W 093°51'0 0.0
2018-Feb-22 18:30N 29°58' W 093°51'0 0.0
2018-Feb-22 18:00N 29°58' W 093°51'0 0.0
2018-Feb-22 17:31N 29°58' W 093°51'0 0.0
2018-Feb-22 17:00N 29°58' W 093°51'0 0.0
2018-Feb-22 16:30N 29°58' W 093°51'0 0.0
2018-Feb-22 16:00N 29°58' W 093°51'0 0.0
2018-Feb-22 15:30N 29°58' W 093°51'0 0.0
2018-Feb-22 15:00N 29°58' W 093°51'0 0.0
2018-Feb-22 14:30N 29°58' W 093°51'0 0.0
2018-Feb-22 14:00N 29°58' W 093°51'0 0.0
2018-Feb-22 13:30N 29°58' W 093°51'0 0.0
2018-Feb-22 13:00N 29°58' W 093°51'0 0.0
2018-Feb-22 12:30N 29°58' W 093°51'0 0.0
2018-Feb-22 12:01N 29°58' W 093°51'0 0.0
2018-Feb-22 11:30N 29°58' W 093°51'0 0.0
2018-Feb-22 11:00N 29°58' W 093°51'0 0.0
2018-Feb-22 10:31N 29°58' W 093°51'0 0.0
2018-Feb-22 10:00N 29°58' W 093°51'0 0.0
2018-Feb-22 09:30N 29°58' W 093°51'0 0.0
2018-Feb-22 09:00N 29°58' W 093°51'0 0.0
2018-Feb-22 08:31N 29°58' W 093°51'0 0.0
2018-Feb-22 08:01N 29°58' W 093°51'0 0.0
2018-Feb-22 07:31N 29°58' W 093°51'0 0.0
2018-Feb-22 07:00N 29°58' W 093°51'0 0.0
2018-Feb-22 06:30N 29°58' W 093°51'0 0.0
2018-Feb-22 06:00N 29°58' W 093°51'0 0.0
2018-Feb-22 05:30N 29°58' W 093°51'0 0.0
2018-Feb-22 05:00N 29°58' W 093°51'0 0.0
2018-Feb-22 04:30N 29°58' W 093°51'0 0.0
2018-Feb-22 04:00N 29°58' W 093°51'0 0.0
2018-Feb-22 03:30N 29°58' W 093°51'0 0.0
2018-Feb-22 03:00N 29°58' W 093°51'0 0.0
2018-Feb-22 02:30N 29°58' W 093°51'0 0.0
2018-Feb-22 02:01N 29°58' W 093°51'1 2.4
2018-Feb-22 01:31N 29°57' W 093°52'3 5.5
2018-Feb-22 01:00N 29°55' W 093°53'3 5.6
2018-Feb-22 00:30N 29°53' W 093°55'3 5.3
2018-Feb-22 00:01N 29°51' W 093°57'1 1.9
2018-Feb-21 23:30N 29°51' W 093°58'0 0.4
2018-Feb-21 23:00N 29°51' W 093°58'0 0.0
2018-Feb-21 22:30N 29°51' W 093°58'0 0.0
2018-Feb-21 22:01N 29°51' W 093°58'0 0.0
2018-Feb-21 21:30N 29°51' W 093°58'0 0.0
2018-Feb-21 21:00N 29°51' W 093°58'1 1.6
2018-Feb-21 20:30N 29°50' W 093°58'2 3.8
2018-Feb-21 20:00N 29°51' W 093°56'3 6.7
2018-Feb-21 19:30N 29°54' W 093°54'3 6.0
2018-Feb-21 19:00N 29°56' W 093°52'2 3.6
2018-Feb-21 18:30N 29°58' W 093°51'0 0.9
2018-Feb-21 18:01N 29°58' W 093°51'0 0.0
2018-Feb-21 17:31N 29°58' W 093°51'0 0.0
2018-Feb-21 17:00N 29°58' W 093°51'0 0.0
2018-Feb-21 16:31N 29°58' W 093°51'0 0.0
2018-Feb-21 16:01N 29°58' W 093°51'0 0.0
2018-Feb-21 15:30N 29°58' W 093°51'0 0.0
2018-Feb-21 15:00N 29°58' W 093°51'0 0.0
2018-Feb-21 14:30N 29°58' W 093°51'0 0.0
2018-Feb-21 14:01N 29°58' W 093°51'0 0.0
2018-Feb-21 13:31N 29°58' W 093°51'0 0.0
2018-Feb-21 13:00N 29°58' W 093°51'0 0.0
2018-Feb-21 12:30N 29°58' W 093°51'0 0.0
2018-Feb-21 12:00N 29°58' W 093°51'0 0.0
2018-Feb-21 11:30N 29°58' W 093°51'0 0.0
2018-Feb-21 11:01N 29°58' W 093°51'0 0.0
2018-Feb-21 10:30N 29°58' W 093°51'0 0.0
2018-Feb-21 10:00N 29°58' W 093°51'0 0.0
2018-Feb-21 09:30N 29°58' W 093°51'0 0.0
2018-Feb-21 09:01N 29°58' W 093°51'0 0.0
2018-Feb-21 08:30N 29°58' W 093°51'0 0.0
2018-Feb-21 08:00N 29°58' W 093°51'0 0.0
2018-Feb-21 07:30N 29°58' W 093°51'0 0.0
2018-Feb-21 07:01N 29°58' W 093°51'0 0.0
2018-Feb-21 06:30N 29°58' W 093°51'0 0.4
2018-Feb-21 06:01N 29°58' W 093°51'4 8.3
2018-Feb-21 05:30N 29°55' W 093°53'4 8.6
2018-Feb-21 05:01N 29°51' W 093°57'1 2.9
2018-Feb-21 04:30N 29°51' W 093°58'0 0.8
2018-Feb-21 04:00N 29°51' W 093°58'0 0.0
2018-Feb-21 03:31N 29°51' W 093°58'0 0.0
2018-Feb-21 03:01N 29°51' W 093°58'0 0.0
2018-Feb-21 02:31N 29°51' W 093°58'0 0.0
2018-Feb-21 02:00N 29°51' W 093°58'0 0.0
2018-Feb-21 01:29N 29°51' W 093°58'0 0.0
2018-Feb-21 01:00N 29°51' W 093°58'0 0.0
2018-Feb-21 00:30N 29°51' W 093°58'0 0.1
2018-Feb-21 00:00N 29°50' W 093°58'1 1.9
2018-Feb-20 23:31N 29°51' W 093°57'3 6.5
2018-Feb-20 23:00N 29°53' W 093°55'4 8.6
2018-Feb-20 22:30N 29°57' W 093°52'2 3.3
2018-Feb-20 22:00N 29°58' W 093°51'0 0.4
2018-Feb-20 21:30N 29°58' W 093°51'0 0.0
2018-Feb-20 21:00N 29°58' W 093°51'0 0.0
2018-Feb-20 20:30N 29°58' W 093°51'0 0.0
2018-Feb-20 20:01N 29°58' W 093°51'0 0.0
2018-Feb-20 19:30N 29°58' W 093°51'0 0.0
2018-Feb-20 19:00N 29°58' W 093°51'0 0.0
2018-Feb-20 18:30N 29°58' W 093°51'0 0.0
2018-Feb-20 18:00N 29°58' W 093°51'0 0.0
2018-Feb-20 17:30N 29°58' W 093°51'0 0.0
2018-Feb-20 17:01N 29°58' W 093°51'0 0.0
2018-Feb-20 16:30N 29°58' W 093°51'0 0.0
2018-Feb-20 16:00N 29°58' W 093°51'0 0.0
2018-Feb-20 15:30N 29°58' W 093°51'0 0.0
2018-Feb-20 15:00N 29°58' W 093°51'0 0.0
2018-Feb-20 14:30N 29°58' W 093°51'0 0.0
2018-Feb-20 14:00N 29°58' W 093°51'0 0.0
2018-Feb-20 13:30N 29°58' W 093°51'0 0.0
2018-Feb-20 13:00N 29°58' W 093°51'0 0.0
2018-Feb-20 12:30N 29°58' W 093°51'0 0.0
2018-Feb-20 12:00N 29°58' W 093°51'0 0.0
2018-Feb-20 11:30N 29°58' W 093°51'0 0.0
2018-Feb-20 11:00N 29°58' W 093°51'0 0.0
2018-Feb-20 10:30N 29°58' W 093°51'0 0.0
2018-Feb-20 10:00N 29°58' W 093°51'0 0.0
2018-Feb-20 09:31N 29°58' W 093°51'0 0.0
2018-Feb-20 09:00N 29°58' W 093°51'0 0.0
2018-Feb-20 08:31N 29°58' W 093°51'0 0.0
2018-Feb-20 08:00N 29°58' W 093°51'0 0.0
2018-Feb-20 07:30N 29°58' W 093°51'0 0.0
2018-Feb-20 07:01N 29°58' W 093°51'0 0.0
2018-Feb-20 06:30N 29°58' W 093°51'0 0.0
2018-Feb-20 06:00N 29°58' W 093°51'0 0.0
2018-Feb-20 05:30N 29°58' W 093°51'0 0.0
2018-Feb-20 05:00N 29°58' W 093°51'0 0.0
2018-Feb-20 04:30N 29°58' W 093°51'0 0.0
2018-Feb-20 04:00N 29°58' W 093°51'0 0.0
2018-Feb-20 03:30N 29°58' W 093°51'0 0.0
2018-Feb-20 03:01N 29°58' W 093°51'0 0.0
2018-Feb-20 02:31N 29°58' W 093°51'0 0.0
2018-Feb-20 02:00N 29°58' W 093°51'0 0.0
2018-Feb-20 01:30N 29°58' W 093°51'0 0.0
2018-Feb-20 01:00N 29°58' W 093°51'0 0.0
2018-Feb-20 00:30N 29°58' W 093°51'0 0.0
2018-Feb-20 00:00N 29°58' W 093°51'0 0.0
2018-Feb-19 23:30N 29°58' W 093°51'0 0.0
2018-Feb-19 23:00N 29°58' W 093°51'0 0.0
2018-Feb-19 22:30N 29°58' W 093°51'0 0.0
2018-Feb-19 22:00N 29°58' W 093°51'0 0.0
2018-Feb-19 21:30N 29°58' W 093°51'0 0.0
2018-Feb-19 21:00N 29°58' W 093°51'0 0.1
2018-Feb-19 20:30N 29°58' W 093°51'0 0.0
2018-Feb-19 20:01N 29°58' W 093°51'0 0.1
2018-Feb-19 19:30N 29°58' W 093°51'0 0.0
2018-Feb-19 19:00N 29°58' W 093°51'0 0.0
2018-Feb-19 18:30N 29°58' W 093°51'0 0.0
2018-Feb-19 18:00N 29°58' W 093°51'0 0.0
2018-Feb-19 17:30N 29°58' W 093°51'0 0.0
2018-Feb-19 17:01N 29°58' W 093°51'0 0.0
2018-Feb-19 16:30N 29°58' W 093°51'0 0.0
2018-Feb-19 16:00N 29°58' W 093°51'0 0.0
2018-Feb-19 15:30N 29°58' W 093°51'0 0.0
2018-Feb-19 15:00N 29°58' W 093°51'0 0.0
2018-Feb-19 14:30N 29°58' W 093°51'0 0.0
2018-Feb-19 14:00N 29°58' W 093°51'0 0.0
2018-Feb-19 13:30N 29°58' W 093°51'0 0.0
2018-Feb-19 13:01N 29°58' W 093°51'0 0.0
2018-Feb-19 12:30N 29°58' W 093°51'0 0.0
2018-Feb-19 12:01N 29°58' W 093°51'0 0.0
2018-Feb-19 11:30N 29°58' W 093°51'0 0.0
2018-Feb-19 11:00N 29°58' W 093°51'0 0.0
2018-Feb-19 10:30N 29°58' W 093°51'0 0.0
2018-Feb-19 10:01N 29°58' W 093°51'0 0.0
2018-Feb-19 09:31N 29°58' W 093°51'0 0.0
2018-Feb-19 09:01N 29°58' W 093°51'0 0.0
2018-Feb-19 08:31N 29°58' W 093°51'0 0.0
2018-Feb-19 08:00N 29°58' W 093°51'0 0.0
2018-Feb-19 07:30N 29°58' W 093°51'0 0.0
2018-Feb-19 07:01N 29°58' W 093°51'0 0.0
2018-Feb-19 06:31N 29°58' W 093°51'0 0.0
2018-Feb-19 06:01N 29°58' W 093°51'0 0.0
2018-Feb-19 05:30N 29°58' W 093°51'0 0.0
2018-Feb-19 05:01N 29°58' W 093°51'0 0.0
2018-Feb-19 04:30N 29°58' W 093°51'0 0.0
2018-Feb-19 04:01N 29°58' W 093°51'0 0.0
2018-Feb-19 03:31N 29°58' W 093°51'0 0.0
2018-Feb-19 03:01N 29°58' W 093°51'0 0.0
2018-Feb-19 02:31N 29°58' W 093°51'0 0.0
2018-Feb-19 02:00N 29°58' W 093°51'0 0.0
2018-Feb-19 01:31N 29°58' W 093°51'0 0.0
2018-Feb-19 01:00N 29°58' W 093°51'0 0.0
2018-Feb-19 00:31N 29°58' W 093°51'0 0.0
2018-Feb-19 00:01N 29°58' W 093°51'0 0.0
2018-Feb-18 23:31N 29°58' W 093°51'0 0.0
2018-Feb-18 23:01N 29°58' W 093°51'0 0.0
2018-Feb-18 22:31N 29°58' W 093°51'0 0.0
2018-Feb-18 22:00N 29°58' W 093°51'0 0.7
2018-Feb-18 21:30N 29°58' W 093°51'0 0.6
2018-Feb-18 21:00N 29°58' W 093°51'2 4.1
2018-Feb-18 20:31N 29°56' W 093°52'2 4.2
2018-Feb-18 20:01N 29°54' W 093°54'2 4.7
2018-Feb-18 19:30N 29°53' W 093°56'2 4.6
2018-Feb-18 19:01N 29°51' W 093°57'2 3.5
2018-Feb-18 18:30N 29°49' W 093°58'0 0.2
2018-Feb-18 18:01N 29°49' W 093°58'2 4.2
2018-Feb-18 17:31N 29°51' W 093°57'4 8.3
2018-Feb-18 17:01N 29°54' W 093°54'4 7.8
2018-Feb-18 16:31N 29°58' W 093°51'1 1.9
2018-Feb-18 16:01N 29°58' W 093°51'0 0.0
2018-Feb-18 15:31N 29°58' W 093°51'0 0.0
2018-Feb-18 15:00N 29°58' W 093°51'0 0.0
2018-Feb-18 14:30N 29°58' W 093°51'0 0.0
2018-Feb-18 14:00N 29°58' W 093°51'0 0.0
2018-Feb-18 13:31N 29°58' W 093°51'0 0.0
2018-Feb-18 13:01N 29°58' W 093°51'0 0.0
2018-Feb-18 12:31N 29°58' W 093°51'0 0.0
2018-Feb-18 12:01N 29°58' W 093°51'0 0.0
2018-Feb-18 11:30N 29°58' W 093°51'0 0.0
2018-Feb-18 11:00N 29°58' W 093°51'0 0.0
2018-Feb-18 10:31N 29°58' W 093°51'0 0.0
2018-Feb-18 10:00N 29°58' W 093°51'0 0.0
2018-Feb-18 09:30N 29°58' W 093°51'0 0.0
2018-Feb-18 09:01N 29°58' W 093°51'0 0.0
2018-Feb-18 08:30N 29°58' W 093°51'0 0.0
2018-Feb-18 08:01N 29°58' W 093°51'0 0.0
2018-Feb-18 07:30N 29°58' W 093°51'0 0.0
2018-Feb-18 07:01N 29°58' W 093°51'0 0.0
2018-Feb-18 06:30N 29°58' W 093°51'0 0.0
2018-Feb-18 06:01N 29°58' W 093°51'0 0.0
2018-Feb-18 05:31N 29°58' W 093°51'0 0.0
2018-Feb-18 05:01N 29°58' W 093°51'0 0.0
2018-Feb-18 04:31N 29°58' W 093°51'0 0.0
2018-Feb-18 04:01N 29°58' W 093°51'0 0.0
2018-Feb-18 03:31N 29°58' W 093°51'0 0.0
2018-Feb-18 03:00N 29°58' W 093°51'0 0.0
2018-Feb-18 02:31N 29°58' W 093°51'0 0.0
2018-Feb-18 02:01N 29°58' W 093°51'0 0.0
2018-Feb-18 01:30N 29°58' W 093°51'0 0.0
2018-Feb-18 01:01N 29°58' W 093°51'0 0.0
2018-Feb-18 00:31N 29°58' W 093°51'0 0.0
2018-Feb-18 00:01N 29°58' W 093°51'0 0.0
2018-Feb-17 23:30N 29°58' W 093°51'0 0.0
2018-Feb-17 23:00N 29°58' W 093°51'0 0.0
2018-Feb-17 22:30N 29°58' W 093°51'0 0.0
2018-Feb-17 22:01N 29°58' W 093°51'0 0.0
2018-Feb-17 21:30N 29°58' W 093°51'0 0.0
2018-Feb-17 21:01N 29°58' W 093°51'0 0.0
2018-Feb-17 20:31N 29°58' W 093°51'0 0.0
2018-Feb-17 20:01N 29°58' W 093°51'1 1.4
2018-Feb-17 19:30N 29°58' W 093°51'0 0.0
2018-Feb-17 19:00N 29°58' W 093°51'0 0.0
2018-Feb-17 18:29N 29°58' W 093°51'0 0.3
2018-Feb-17 18:01N 29°58' W 093°51'1 1.2
2018-Feb-17 17:31N 29°58' W 093°51'0 0.0
2018-Feb-17 17:01N 29°58' W 093°51'0 0.0
2018-Feb-17 16:30N 29°58' W 093°51'0 0.0
2018-Feb-17 16:00N 29°58' W 093°51'0 0.0
2018-Feb-17 15:31N 29°58' W 093°51'0 0.0
2018-Feb-17 15:00N 29°58' W 093°51'0 0.0
2018-Feb-17 14:31N 29°58' W 093°51'0 0.0
2018-Feb-17 14:01N 29°58' W 093°51'0 0.0
2018-Feb-17 13:30N 29°58' W 093°51'0 0.0
2018-Feb-17 13:01N 29°58' W 093°51'0 0.0
2018-Feb-17 12:31N 29°58' W 093°51'0 0.0
2018-Feb-17 12:00N 29°58' W 093°51'0 0.0
2018-Feb-17 11:30N 29°58' W 093°51'0 0.0
2018-Feb-17 11:01N 29°58' W 093°51'0 0.0
2018-Feb-17 10:30N 29°58' W 093°51'0 0.0
2018-Feb-17 10:01N 29°58' W 093°51'0 0.0
2018-Feb-17 09:30N 29°58' W 093°51'0 0.0
2018-Feb-17 09:01N 29°58' W 093°51'0 0.0
2018-Feb-17 08:30N 29°58' W 093°51'0 0.0
2018-Feb-17 08:00N 29°58' W 093°51'0 0.0
2018-Feb-17 07:31N 29°58' W 093°51'0 0.0
2018-Feb-17 07:01N 29°58' W 093°51'0 0.0
2018-Feb-17 06:31N 29°58' W 093°51'0 0.0
2018-Feb-17 06:01N 29°58' W 093°51'0 0.0
2018-Feb-17 05:30N 29°58' W 093°51'0 0.0
2018-Feb-17 05:00N 29°58' W 093°51'0 0.0
2018-Feb-17 04:30N 29°58' W 093°51'0 0.0
2018-Feb-17 04:00N 29°58' W 093°51'0 0.0
2018-Feb-17 03:31N 29°58' W 093°51'0 0.0
2018-Feb-17 03:00N 29°58' W 093°51'0 0.0
2018-Feb-17 02:29N 29°58' W 093°51'0 0.0
2018-Feb-17 02:00N 29°58' W 093°51'0 0.0
2018-Feb-17 01:30N 29°58' W 093°51'0 0.0
2018-Feb-17 01:00N 29°58' W 093°51'0 0.0
2018-Feb-17 00:31N 29°58' W 093°51'0 0.0
2018-Feb-17 00:00N 29°58' W 093°51'0 0.0
2018-Feb-16 23:31N 29°58' W 093°51'0 0.0
2018-Feb-16 23:01N 29°58' W 093°51'0 0.0
2018-Feb-16 22:30N 29°58' W 093°51'0 0.0
2018-Feb-16 22:00N 29°58' W 093°51'0 0.0
2018-Feb-16 21:30N 29°58' W 093°51'0 0.0
2018-Feb-16 21:00N 29°58' W 093°51'0 0.0
2018-Feb-16 20:30N 29°58' W 093°51'0 0.0
2018-Feb-16 20:01N 29°58' W 093°51'0 0.0
2018-Feb-16 19:31N 29°58' W 093°51'0 0.0
2018-Feb-16 19:01N 29°58' W 093°51'0 0.0
2018-Feb-16 18:30N 29°58' W 093°51'0 0.0
2018-Feb-16 18:00N 29°58' W 093°51'0 0.0
2018-Feb-16 17:30N 29°58' W 093°51'0 0.0
2018-Feb-16 17:00N 29°58' W 093°51'0 0.0
2018-Feb-16 16:30N 29°58' W 093°51'0 0.0
2018-Feb-16 16:01N 29°58' W 093°51'0 0.0
2018-Feb-16 15:30N 29°58' W 093°51'0 0.0
2018-Feb-16 15:00N 29°58' W 093°51'0 0.7
2018-Feb-16 14:30N 29°58' W 093°51'0 0.0
2018-Feb-16 14:00N 29°58' W 093°51'0 0.8
2018-Feb-16 13:30N 29°58' W 093°51'0 0.0
2018-Feb-16 13:00N 29°58' W 093°51'0 0.0
2018-Feb-16 12:30N 29°58' W 093°51'0 0.0
2018-Feb-16 12:00N 29°58' W 093°51'0 0.0
2018-Feb-16 11:31N 29°58' W 093°51'0 0.0
2018-Feb-16 11:01N 29°58' W 093°51'0 0.0
2018-Feb-16 10:31N 29°58' W 093°51'0 0.0
2018-Feb-16 10:00N 29°58' W 093°51'0 0.0
2018-Feb-16 09:29N 29°58' W 093°51'0 0.0
2018-Feb-16 09:01N 29°58' W 093°51'0 0.0
2018-Feb-16 08:30N 29°58' W 093°51'0 0.0
2018-Feb-16 08:01N 29°58' W 093°51'0 0.0
2018-Feb-16 07:31N 29°58' W 093°51'0 0.0
2018-Feb-16 07:00N 29°58' W 093°51'0 0.0
2018-Feb-16 06:30N 29°58' W 093°51'0 0.0
2018-Feb-16 06:00N 29°58' W 093°51'0 0.0
2018-Feb-16 05:30N 29°58' W 093°51'0 0.0
2018-Feb-16 05:00N 29°58' W 093°51'0 0.0
2018-Feb-16 04:30N 29°58' W 093°51'0 0.0
2018-Feb-16 04:00N 29°58' W 093°51'0 0.0
2018-Feb-16 03:30N 29°58' W 093°51'0 0.0
2018-Feb-16 03:01N 29°58' W 093°51'0 0.0
2018-Feb-16 02:31N 29°58' W 093°51'0 0.0
2018-Feb-16 02:00N 29°58' W 093°51'0 0.0
2018-Feb-16 01:31N 29°58' W 093°51'0 0.0
2018-Feb-16 01:01N 29°58' W 093°51'0 0.0
2018-Feb-16 00:30N 29°58' W 093°51'0 0.0
2018-Feb-16 00:00N 29°58' W 093°51'0 0.0
2018-Feb-15 23:30N 29°58' W 093°51'0 0.0
2018-Feb-15 23:00N 29°58' W 093°51'0 0.0
2018-Feb-15 22:30N 29°58' W 093°51'0 0.0
2018-Feb-15 21:58N 29°58' W 093°51'0 0.0
2018-Feb-15 21:30N 29°58' W 093°51'0 0.0
2018-Feb-15 21:00N 29°58' W 093°51'0 0.0
2018-Feb-15 20:31N 29°58' W 093°51'0 0.0
2018-Feb-15 20:01N 29°58' W 093°51'0 0.0
2018-Feb-15 19:30N 29°58' W 093°51'0 0.0
2018-Feb-15 18:59N 29°58' W 093°51'0 0.0
2018-Feb-15 18:30N 29°58' W 093°51'0 0.0
2018-Feb-15 17:59N 29°58' W 093°51'0 0.0
2018-Feb-15 17:31N 29°58' W 093°51'0 0.3
2018-Feb-15 17:01N 29°58' W 093°51'0 0.0
2018-Feb-15 16:30N 29°58' W 093°51'0 0.0
2018-Feb-15 16:00N 29°58' W 093°51'0 0.0
2018-Feb-15 15:30N 29°58' W 093°51'0 0.0
2018-Feb-15 15:00N 29°58' W 093°51'0 0.0
2018-Feb-15 14:30N 29°58' W 093°51'0 0.0
2018-Feb-15 14:00N 29°58' W 093°51'0 0.0
2018-Feb-15 13:30N 29°58' W 093°51'0 0.0
2018-Feb-15 12:59N 29°58' W 093°51'0 0.0
2018-Feb-15 12:30N 29°58' W 093°51'0 0.0
2018-Feb-15 12:00N 29°58' W 093°51'0 0.0
2018-Feb-15 11:30N 29°58' W 093°51'0 0.0
2018-Feb-15 11:00N 29°58' W 093°51'0 0.0
2018-Feb-15 10:30N 29°58' W 093°51'0 0.0
2018-Feb-15 10:00N 29°58' W 093°51'0 0.0
2018-Feb-15 09:30N 29°58' W 093°51'0 0.0
2018-Feb-15 09:00N 29°58' W 093°51'0 0.0
2018-Feb-15 08:30N 29°58' W 093°51'0 0.0
2018-Feb-15 08:00N 29°58' W 093°51'0 0.0
2018-Feb-15 07:30N 29°58' W 093°51'0 0.0
2018-Feb-15 07:00N 29°58' W 093°51'0 0.0
2018-Feb-15 06:30N 29°58' W 093°51'0 0.0
2018-Feb-15 06:00N 29°58' W 093°51'0 0.0
2018-Feb-15 05:30N 29°58' W 093°51'0 0.0
2018-Feb-15 05:00N 29°58' W 093°51'0 0.0
2018-Feb-15 04:30N 29°58' W 093°51'0 0.0
2018-Feb-15 04:00N 29°58' W 093°51'0 0.0
2018-Feb-15 03:29N 29°58' W 093°51'0 0.0
2018-Feb-15 03:00N 29°58' W 093°51'0 0.0
2018-Feb-15 02:30N 29°58' W 093°51'0 0.0
2018-Feb-15 02:00N 29°58' W 093°51'0 0.0
2018-Feb-15 01:30N 29°58' W 093°51'0 0.0
2018-Feb-15 01:00N 29°58' W 093°51'0 0.0
2018-Feb-15 00:30N 29°58' W 093°51'0 0.0
2018-Feb-15 00:00N 29°58' W 093°51'0 0.0
2018-Feb-14 23:30N 29°58' W 093°51'0 0.0
2018-Feb-14 23:00N 29°58' W 093°51'0 0.3
2018-Feb-14 22:30N 29°58' W 093°51'0 0.0
2018-Feb-14 22:00N 29°58' W 093°51'0 0.0
2018-Feb-14 21:29N 29°58' W 093°51'0 0.0
2018-Feb-14 20:59N 29°58' W 093°51'0 0.0
2018-Feb-14 20:30N 29°58' W 093°51'0 0.0
2018-Feb-14 20:00N 29°58' W 093°51'0 0.0
2018-Feb-14 19:30N 29°58' W 093°51'0 0.0
2018-Feb-14 19:00N 29°58' W 093°51'0 0.0
2018-Feb-14 18:29N 29°58' W 093°51'0 0.0
2018-Feb-14 18:00N 29°58' W 093°51'0 0.0
2018-Feb-14 17:30N 29°58' W 093°51'0 0.0
2018-Feb-14 16:58N 29°58' W 093°51'0 0.0
2018-Feb-14 16:30N 29°58' W 093°51'0 0.0
2018-Feb-14 16:00N 29°58' W 093°51'0 0.0
2018-Feb-14 15:30N 29°58' W 093°51'0 0.0
2018-Feb-14 15:00N 29°58' W 093°51'0 0.0
2018-Feb-14 14:30N 29°58' W 093°51'0 0.1
2018-Feb-14 14:00N 29°58' W 093°51'0 0.3
2018-Feb-14 13:30N 29°58' W 093°51'0 0.0
2018-Feb-14 13:00N 29°58' W 093°51'0 0.0
2018-Feb-14 12:30N 29°58' W 093°51'0 0.0
2018-Feb-14 12:00N 29°58' W 093°51'0 0.0
2018-Feb-14 11:30N 29°58' W 093°51'0 0.0
2018-Feb-14 11:00N 29°58' W 093°51'0 0.0
2018-Feb-14 10:30N 29°58' W 093°51'0 0.0
2018-Feb-14 10:00N 29°58' W 093°51'0 0.0
2018-Feb-14 09:30N 29°58' W 093°51'0 0.0
2018-Feb-14 09:00N 29°58' W 093°51'0 0.0
2018-Feb-14 08:30N 29°58' W 093°51'0 0.0
2018-Feb-14 08:00N 29°58' W 093°51'0 0.0
2018-Feb-14 07:30N 29°58' W 093°51'0 0.0
2018-Feb-14 07:00N 29°58' W 093°51'0 0.0
2018-Feb-14 06:30N 29°58' W 093°51'0 0.0
2018-Feb-14 06:00N 29°58' W 093°51'0 0.0
2018-Feb-14 05:30N 29°58' W 093°51'0 0.0
2018-Feb-14 05:00N 29°58' W 093°51'0 0.0
2018-Feb-14 04:30N 29°58' W 093°51'0 0.0
2018-Feb-14 04:00N 29°58' W 093°51'0 0.0
2018-Feb-14 03:30N 29°58' W 093°51'0 0.0
2018-Feb-14 03:00N 29°58' W 093°51'0 0.0
2018-Feb-14 02:30N 29°58' W 093°51'0 0.0
2018-Feb-14 02:00N 29°58' W 093°51'0 0.0
2018-Feb-14 01:30N 29°58' W 093°51'0 0.0
2018-Feb-14 01:00N 29°58' W 093°51'0 0.0
2018-Feb-14 00:30N 29°58' W 093°51'0 0.0
2018-Feb-14 00:00N 29°58' W 093°51'0 0.0
2018-Feb-13 23:30N 29°58' W 093°51'0 0.0
2018-Feb-13 23:00N 29°58' W 093°51'0 0.0
2018-Feb-13 22:30N 29°58' W 093°51'0 0.0
2018-Feb-13 22:00N 29°58' W 093°51'0 0.0
2018-Feb-13 21:30N 29°58' W 093°51'0 0.0
2018-Feb-13 21:00N 29°58' W 093°51'0 0.0
2018-Feb-13 20:30N 29°58' W 093°51'0 0.0
2018-Feb-13 20:00N 29°58' W 093°51'0 0.0
2018-Feb-13 19:30N 29°58' W 093°51'0 0.0
2018-Feb-13 19:00N 29°58' W 093°51'0 0.0
2018-Feb-13 18:30N 29°58' W 093°51'0 0.0
2018-Feb-13 18:00N 29°58' W 093°51'0 0.0
2018-Feb-13 17:30N 29°58' W 093°51'0 0.0
2018-Feb-13 17:00N 29°58' W 093°51'0 0.2
2018-Feb-13 16:30N 29°58' W 093°51'0 0.2
2018-Feb-13 16:00N 29°58' W 093°51'0 0.0
2018-Feb-13 15:30N 29°58' W 093°51'0 0.0
2018-Feb-13 15:00N 29°58' W 093°51'0 0.2
2018-Feb-13 14:30N 29°58' W 093°51'0 0.3
2018-Feb-13 14:00N 29°58' W 093°51'0 0.3
2018-Feb-13 13:30N 29°58' W 093°51'0 0.0
2018-Feb-13 13:00N 29°58' W 093°51'0 0.0
2018-Feb-13 12:30N 29°58' W 093°51'0 0.0
2018-Feb-13 12:00N 29°58' W 093°51'0 0.0
2018-Feb-13 11:30N 29°58' W 093°51'0 0.0
2018-Feb-13 11:00N 29°58' W 093°51'0 0.0
2018-Feb-13 10:30N 29°58' W 093°51'0 0.0
2018-Feb-13 10:00N 29°58' W 093°51'0 0.0
2018-Feb-13 09:30N 29°58' W 093°51'0 0.0
2018-Feb-13 09:00N 29°58' W 093°51'0 0.0
2018-Feb-13 08:30N 29°58' W 093°51'0 0.0
2018-Feb-13 08:00N 29°58' W 093°51'0 0.0
2018-Feb-13 07:30N 29°58' W 093°51'0 0.0
2018-Feb-13 07:00N 29°58' W 093°51'0 0.0
2018-Feb-13 06:30N 29°58' W 093°51'0 0.0
2018-Feb-13 06:00N 29°58' W 093°51'0 0.0
2018-Feb-13 05:30N 29°58' W 093°51'0 0.0
2018-Feb-13 05:00N 29°58' W 093°51'0 0.0
2018-Feb-13 04:30N 29°58' W 093°51'0 0.0
2018-Feb-13 04:00N 29°58' W 093°51'0 0.0
2018-Feb-13 03:30N 29°58' W 093°51'0 0.0
2018-Feb-13 03:00N 29°58' W 093°51'  
Track history (hours):
 
Tides and Currents Weather Stations Pressure Air Temp Water Temp Dewpoint Dewpoint Depression Visibility Wind Speed Wind Dir Waves Ship Positions

Savage Integrity

Owner: Savage Inland Marine, Gibson, LA. More information available from US FCC via Universal Licensing System and Coast Guard Vessel Documentation Center.

Last reported at 2018-Feb-23 02:30 UTC. Time now 2018-Feb-23 02:37 UTC.
Position N 29°58' W 093°51'.

Length 25 m; draft 2.9 m.

Type: Towing. MMSI: 367547030.

Date/timePositionNaut miles runAvg speedWind from/ knotsBaromVisibWave heightAir tempDewpointWater temp
2018-Feb-23 02:30N 29°58' W 093°51'0 0.0
2018-Feb-23 02:00N 29°58' W 093°51'0 0.0
2018-Feb-23 01:30N 29°58' W 093°51'0 0.0
2018-Feb-23 01:00N 29°58' W 093°51'0 0.0
2018-Feb-23 00:30N 29°58' W 093°51'0 0.0
2018-Feb-23 00:00N 29°58' W 093°51'0 0.0
2018-Feb-22 23:30N 29°58' W 093°51'0 0.0
2018-Feb-22 23:00N 29°58' W 093°51'0 0.0
2018-Feb-22 22:30N 29°58' W 093°51'0 0.0
2018-Feb-22 22:00N 29°58' W 093°51'0 0.0
2018-Feb-22 21:30N 29°58' W 093°51'0 0.0
2018-Feb-22 21:01N 29°58' W 093°51'0 0.0
2018-Feb-22 20:31N 29°58' W 093°51'0 0.0
2018-Feb-22 20:00N 29°58' W 093°51'0 0.0
2018-Feb-22 19:30N 29°58' W 093°51'0 0.0
2018-Feb-22 19:00N 29°58' W 093°51'0 0.0
2018-Feb-22 18:30N 29°58' W 093°51'0 0.0
2018-Feb-22 18:00N 29°58' W 093°51'0 0.0
2018-Feb-22 17:31N 29°58' W 093°51'0 0.0
2018-Feb-22 17:00N 29°58' W 093°51'0 0.0
2018-Feb-22 16:30N 29°58' W 093°51'0 0.0
2018-Feb-22 16:00N 29°58' W 093°51'0 0.0
2018-Feb-22 15:30N 29°58' W 093°51'0 0.0
2018-Feb-22 15:00N 29°58' W 093°51'0 0.0
2018-Feb-22 14:30N 29°58' W 093°51'0 0.0
2018-Feb-22 14:00N 29°58' W 093°51'0 0.0
2018-Feb-22 13:30N 29°58' W 093°51'0 0.0
2018-Feb-22 13:00N 29°58' W 093°51'0 0.0
2018-Feb-22 12:30N 29°58' W 093°51'0 0.0
2018-Feb-22 12:01N 29°58' W 093°51'0 0.0
2018-Feb-22 11:30N 29°58' W 093°51'0 0.0
2018-Feb-22 11:00N 29°58' W 093°51'0 0.0
2018-Feb-22 10:31N 29°58' W 093°51'0 0.0
2018-Feb-22 10:00N 29°58' W 093°51'0 0.0
2018-Feb-22 09:30N 29°58' W 093°51'0 0.0
2018-Feb-22 09:00N 29°58' W 093°51'0 0.0
2018-Feb-22 08:31N 29°58' W 093°51'0 0.0
2018-Feb-22 08:01N 29°58' W 093°51'0 0.0
2018-Feb-22 07:31N 29°58' W 093°51'0 0.0
2018-Feb-22 07:00N 29°58' W 093°51'0 0.0
2018-Feb-22 06:30N 29°58' W 093°51'0 0.0
2018-Feb-22 06:00N 29°58' W 093°51'0 0.0
2018-Feb-22 05:30N 29°58' W 093°51'0 0.0
2018-Feb-22 05:00N 29°58' W 093°51'0 0.0
2018-Feb-22 04:30N 29°58' W 093°51'0 0.0
2018-Feb-22 04:00N 29°58' W 093°51'0 0.0
2018-Feb-22 03:30N 29°58' W 093°51'0 0.0
2018-Feb-22 03:00N 29°58' W 093°51'0 0.0
2018-Feb-22 02:30N 29°58' W 093°51'0 0.0
2018-Feb-22 02:01N 29°58' W 093°51'1 2.4
2018-Feb-22 01:31N 29°57' W 093°52'3 5.5
2018-Feb-22 01:00N 29°55' W 093°53'3 5.6
2018-Feb-22 00:30N 29°53' W 093°55'3 5.3
2018-Feb-22 00:01N 29°51' W 093°57'1 1.9
2018-Feb-21 23:30N 29°51' W 093°58'0 0.4
2018-Feb-21 23:00N 29°51' W 093°58'0 0.0
2018-Feb-21 22:30N 29°51' W 093°58'0 0.0
2018-Feb-21 22:01N 29°51' W 093°58'0 0.0
2018-Feb-21 21:30N 29°51' W 093°58'0 0.0
2018-Feb-21 21:00N 29°51' W 093°58'1 1.6
2018-Feb-21 20:30N 29°50' W 093°58'2 3.8
2018-Feb-21 20:00N 29°51' W 093°56'3 6.7
2018-Feb-21 19:30N 29°54' W 093°54'3 6.0
2018-Feb-21 19:00N 29°56' W 093°52'2 3.6
2018-Feb-21 18:30N 29°58' W 093°51'0 0.9
2018-Feb-21 18:01N 29°58' W 093°51'0 0.0
2018-Feb-21 17:31N 29°58' W 093°51'0 0.0
2018-Feb-21 17:00N 29°58' W 093°51'0 0.0
2018-Feb-21 16:31N 29°58' W 093°51'0 0.0
2018-Feb-21 16:01N 29°58' W 093°51'0 0.0
2018-Feb-21 15:30N 29°58' W 093°51'0 0.0
2018-Feb-21 15:00N 29°58' W 093°51'0 0.0
2018-Feb-21 14:30N 29°58' W 093°51'0 0.0
2018-Feb-21 14:01N 29°58' W 093°51'0 0.0
2018-Feb-21 13:31N 29°58' W 093°51'0 0.0
2018-Feb-21 13:00N 29°58' W 093°51'0 0.0
2018-Feb-21 12:30N 29°58' W 093°51'0 0.0
2018-Feb-21 12:00N 29°58' W 093°51'0 0.0
2018-Feb-21 11:30N 29°58' W 093°51'0 0.0
2018-Feb-21 11:01N 29°58' W 093°51'0 0.0
2018-Feb-21 10:30N 29°58' W 093°51'0 0.0
2018-Feb-21 10:00N 29°58' W 093°51'0 0.0
2018-Feb-21 09:30N 29°58' W 093°51'0 0.0
2018-Feb-21 09:01N 29°58' W 093°51'0 0.0
2018-Feb-21 08:30N 29°58' W 093°51'0 0.0
2018-Feb-21 08:00N 29°58' W 093°51'0 0.0
2018-Feb-21 07:30N 29°58' W 093°51'0 0.0
2018-Feb-21 07:01N 29°58' W 093°51'0 0.0
2018-Feb-21 06:30N 29°58' W 093°51'0 0.4
2018-Feb-21 06:01N 29°58' W 093°51'4 8.3
2018-Feb-21 05:30N 29°55' W 093°53'4 8.6
2018-Feb-21 05:01N 29°51' W 093°57'1 2.9
2018-Feb-21 04:30N 29°51' W 093°58'0 0.8
2018-Feb-21 04:00N 29°51' W 093°58'0 0.0
2018-Feb-21 03:31N 29°51' W 093°58'0 0.0
2018-Feb-21 03:01N 29°51' W 093°58'0 0.0
2018-Feb-21 02:31N 29°51' W 093°58'0 0.0
2018-Feb-21 02:00N 29°51' W 093°58'0 0.0
2018-Feb-21 01:29N 29°51' W 093°58'0 0.0
2018-Feb-21 01:00N 29°51' W 093°58'0 0.0
2018-Feb-21 00:30N 29°51' W 093°58'0 0.1
2018-Feb-21 00:00N 29°50' W 093°58'1 1.9
2018-Feb-20 23:31N 29°51' W 093°57'3 6.5
2018-Feb-20 23:00N 29°53' W 093°55'4 8.6
2018-Feb-20 22:30N 29°57' W 093°52'2 3.3
2018-Feb-20 22:00N 29°58' W 093°51'0 0.4
2018-Feb-20 21:30N 29°58' W 093°51'0 0.0
2018-Feb-20 21:00N 29°58' W 093°51'0 0.0
2018-Feb-20 20:30N 29°58' W 093°51'0 0.0
2018-Feb-20 20:01N 29°58' W 093°51'0 0.0
2018-Feb-20 19:30N 29°58' W 093°51'0 0.0
2018-Feb-20 19:00N 29°58' W 093°51'0 0.0
2018-Feb-20 18:30N 29°58' W 093°51'0 0.0
2018-Feb-20 18:00N 29°58' W 093°51'0 0.0
2018-Feb-20 17:30N 29°58' W 093°51'0 0.0
2018-Feb-20 17:01N 29°58' W 093°51'0 0.0
2018-Feb-20 16:30N 29°58' W 093°51'0 0.0
2018-Feb-20 16:00N 29°58' W 093°51'0 0.0
2018-Feb-20 15:30N 29°58' W 093°51'0 0.0
2018-Feb-20 15:00N 29°58' W 093°51'0 0.0
2018-Feb-20 14:30N 29°58' W 093°51'0 0.0
2018-Feb-20 14:00N 29°58' W 093°51'0 0.0
2018-Feb-20 13:30N 29°58' W 093°51'0 0.0
2018-Feb-20 13:00N 29°58' W 093°51'0 0.0
2018-Feb-20 12:30N 29°58' W 093°51'0 0.0
2018-Feb-20 12:00N 29°58' W 093°51'0 0.0
2018-Feb-20 11:30N 29°58' W 093°51'0 0.0
2018-Feb-20 11:00N 29°58' W 093°51'0 0.0
2018-Feb-20 10:30N 29°58' W 093°51'0 0.0
2018-Feb-20 10:00N 29°58' W 093°51'0 0.0
2018-Feb-20 09:31N 29°58' W 093°51'0 0.0
2018-Feb-20 09:00N 29°58' W 093°51'0 0.0
2018-Feb-20 08:31N 29°58' W 093°51'0 0.0
2018-Feb-20 08:00N 29°58' W 093°51'0 0.0
2018-Feb-20 07:30N 29°58' W 093°51'0 0.0
2018-Feb-20 07:01N 29°58' W 093°51'0 0.0
2018-Feb-20 06:30N 29°58' W 093°51'0 0.0
2018-Feb-20 06:00N 29°58' W 093°51'0 0.0
2018-Feb-20 05:30N 29°58' W 093°51'0 0.0
2018-Feb-20 05:00N 29°58' W 093°51'0 0.0
2018-Feb-20 04:30N 29°58' W 093°51'0 0.0
2018-Feb-20 04:00N 29°58' W 093°51'0 0.0
2018-Feb-20 03:30N 29°58' W 093°51'0 0.0
2018-Feb-20 03:01N 29°58' W 093°51'0 0.0
2018-Feb-20 02:31N 29°58' W 093°51'0 0.0
2018-Feb-20 02:00N 29°58' W 093°51'0 0.0
2018-Feb-20 01:30N 29°58' W 093°51'0 0.0
2018-Feb-20 01:00N 29°58' W 093°51'0 0.0
2018-Feb-20 00:30N 29°58' W 093°51'0 0.0
2018-Feb-20 00:00N 29°58' W 093°51'0 0.0
2018-Feb-19 23:30N 29°58' W 093°51'0 0.0
2018-Feb-19 23:00N 29°58' W 093°51'0 0.0
2018-Feb-19 22:30N 29°58' W 093°51'0 0.0
2018-Feb-19 22:00N 29°58' W 093°51'0 0.0
2018-Feb-19 21:30N 29°58' W 093°51'0 0.0
2018-Feb-19 21:00N 29°58' W 093°51'0 0.1
2018-Feb-19 20:30N 29°58' W 093°51'0 0.0
2018-Feb-19 20:01N 29°58' W 093°51'0 0.1
2018-Feb-19 19:30N 29°58' W 093°51'0 0.0
2018-Feb-19 19:00N 29°58' W 093°51'0 0.0
2018-Feb-19 18:30N 29°58' W 093°51'0 0.0
2018-Feb-19 18:00N 29°58' W 093°51'0 0.0
2018-Feb-19 17:30N 29°58' W 093°51'0 0.0
2018-Feb-19 17:01N 29°58' W 093°51'0 0.0
2018-Feb-19 16:30N 29°58' W 093°51'0 0.0
2018-Feb-19 16:00N 29°58' W 093°51'0 0.0
2018-Feb-19 15:30N 29°58' W 093°51'0 0.0
2018-Feb-19 15:00N 29°58' W 093°51'0 0.0
2018-Feb-19 14:30N 29°58' W 093°51'0 0.0
2018-Feb-19 14:00N 29°58' W 093°51'0 0.0
2018-Feb-19 13:30N 29°58' W 093°51'0 0.0
2018-Feb-19 13:01N 29°58' W 093°51'0 0.0
2018-Feb-19 12:30N 29°58' W 093°51'0 0.0
2018-Feb-19 12:01N 29°58' W 093°51'0 0.0
2018-Feb-19 11:30N 29°58' W 093°51'0 0.0
2018-Feb-19 11:00N 29°58' W 093°51'0 0.0
2018-Feb-19 10:30N 29°58' W 093°51'0 0.0
2018-Feb-19 10:01N 29°58' W 093°51'0 0.0
2018-Feb-19 09:31N 29°58' W 093°51'0 0.0
2018-Feb-19 09:01N 29°58' W 093°51'0 0.0
2018-Feb-19 08:31N 29°58' W 093°51'0 0.0
2018-Feb-19 08:00N 29°58' W 093°51'0 0.0
2018-Feb-19 07:30N 29°58' W 093°51'0 0.0
2018-Feb-19 07:01N 29°58' W 093°51'0 0.0
2018-Feb-19 06:31N 29°58' W 093°51'0 0.0
2018-Feb-19 06:01N 29°58' W 093°51'0 0.0
2018-Feb-19 05:30N 29°58' W 093°51'0 0.0
2018-Feb-19 05:01N 29°58' W 093°51'0 0.0
2018-Feb-19 04:30N 29°58' W 093°51'0 0.0
2018-Feb-19 04:01N 29°58' W 093°51'0 0.0
2018-Feb-19 03:31N 29°58' W 093°51'0 0.0
2018-Feb-19 03:01N 29°58' W 093°51'0 0.0
2018-Feb-19 02:31N 29°58' W 093°51'0 0.0
2018-Feb-19 02:00N 29°58' W 093°51'0 0.0
2018-Feb-19 01:31N 29°58' W 093°51'0 0.0
2018-Feb-19 01:00N 29°58' W 093°51'0 0.0
2018-Feb-19 00:31N 29°58' W 093°51'0 0.0
2018-Feb-19 00:01N 29°58' W 093°51'0 0.0
2018-Feb-18 23:31N 29°58' W 093°51'0 0.0
2018-Feb-18 23:01N 29°58' W 093°51'0 0.0
2018-Feb-18 22:31N 29°58' W 093°51'0 0.0
2018-Feb-18 22:00N 29°58' W 093°51'0 0.7
2018-Feb-18 21:30N 29°58' W 093°51'0 0.6
2018-Feb-18 21:00N 29°58' W 093°51'2 4.1
2018-Feb-18 20:31N 29°56' W 093°52'2 4.2
2018-Feb-18 20:01N 29°54' W 093°54'2 4.7
2018-Feb-18 19:30N 29°53' W 093°56'2 4.6
2018-Feb-18 19:01N 29°51' W 093°57'2 3.5
2018-Feb-18 18:30N 29°49' W 093°58'0 0.2
2018-Feb-18 18:01N 29°49' W 093°58'2 4.2
2018-Feb-18 17:31N 29°51' W 093°57'4 8.3
2018-Feb-18 17:01N 29°54' W 093°54'4 7.8
2018-Feb-18 16:31N 29°58' W 093°51'1 1.9
2018-Feb-18 16:01N 29°58' W 093°51'0 0.0
2018-Feb-18 15:31N 29°58' W 093°51'0 0.0
2018-Feb-18 15:00N 29°58' W 093°51'0 0.0
2018-Feb-18 14:30N 29°58' W 093°51'0 0.0
2018-Feb-18 14:00N 29°58' W 093°51'0 0.0
2018-Feb-18 13:31N 29°58' W 093°51'0 0.0
2018-Feb-18 13:01N 29°58' W 093°51'0 0.0
2018-Feb-18 12:31N 29°58' W 093°51'0 0.0
2018-Feb-18 12:01N 29°58' W 093°51'0 0.0
2018-Feb-18 11:30N 29°58' W 093°51'0 0.0
2018-Feb-18 11:00N 29°58' W 093°51'0 0.0
2018-Feb-18 10:31N 29°58' W 093°51'0 0.0
2018-Feb-18 10:00N 29°58' W 093°51'0 0.0
2018-Feb-18 09:30N 29°58' W 093°51'0 0.0
2018-Feb-18 09:01N 29°58' W 093°51'0 0.0
2018-Feb-18 08:30N 29°58' W 093°51'0 0.0
2018-Feb-18 08:01N 29°58' W 093°51'0 0.0
2018-Feb-18 07:30N 29°58' W 093°51'0 0.0
2018-Feb-18 07:01N 29°58' W 093°51'0 0.0
2018-Feb-18 06:30N 29°58' W 093°51'0 0.0
2018-Feb-18 06:01N 29°58' W 093°51'0 0.0
2018-Feb-18 05:31N 29°58' W 093°51'0 0.0
2018-Feb-18 05:01N 29°58' W 093°51'0 0.0
2018-Feb-18 04:31N 29°58' W 093°51'0 0.0
2018-Feb-18 04:01N 29°58' W 093°51'0 0.0
2018-Feb-18 03:31N 29°58' W 093°51'0 0.0
2018-Feb-18 03:00N 29°58' W 093°51'0 0.0
2018-Feb-18 02:31N 29°58' W 093°51'0 0.0
2018-Feb-18 02:01N 29°58' W 093°51'0 0.0
2018-Feb-18 01:30N 29°58' W 093°51'0 0.0
2018-Feb-18 01:01N 29°58' W 093°51'0 0.0
2018-Feb-18 00:31N 29°58' W 093°51'0 0.0
2018-Feb-18 00:01N 29°58' W 093°51'0 0.0
2018-Feb-17 23:30N 29°58' W 093°51'0 0.0
2018-Feb-17 23:00N 29°58' W 093°51'0 0.0
2018-Feb-17 22:30N 29°58' W 093°51'0 0.0
2018-Feb-17 22:01N 29°58' W 093°51'0 0.0
2018-Feb-17 21:30N 29°58' W 093°51'0 0.0
2018-Feb-17 21:01N 29°58' W 093°51'0 0.0
2018-Feb-17 20:31N 29°58' W 093°51'0 0.0
2018-Feb-17 20:01N 29°58' W 093°51'1 1.4
2018-Feb-17 19:30N 29°58' W 093°51'0 0.0
2018-Feb-17 19:00N 29°58' W 093°51'0 0.0
2018-Feb-17 18:29N 29°58' W 093°51'0 0.3
2018-Feb-17 18:01N 29°58' W 093°51'1 1.2
2018-Feb-17 17:31N 29°58' W 093°51'0 0.0
2018-Feb-17 17:01N 29°58' W 093°51'0 0.0
2018-Feb-17 16:30N 29°58' W 093°51'0 0.0
2018-Feb-17 16:00N 29°58' W 093°51'0 0.0
2018-Feb-17 15:31N 29°58' W 093°51'0 0.0
2018-Feb-17 15:00N 29°58' W 093°51'0 0.0
2018-Feb-17 14:31N 29°58' W 093°51'0 0.0
2018-Feb-17 14:01N 29°58' W 093°51'0 0.0
2018-Feb-17 13:30N 29°58' W 093°51'0 0.0
2018-Feb-17 13:01N 29°58' W 093°51'0 0.0
2018-Feb-17 12:31N 29°58' W 093°51'0 0.0
2018-Feb-17 12:00N 29°58' W 093°51'0 0.0
2018-Feb-17 11:30N 29°58' W 093°51'0 0.0
2018-Feb-17 11:01N 29°58' W 093°51'0 0.0
2018-Feb-17 10:30N 29°58' W 093°51'0 0.0
2018-Feb-17 10:01N 29°58' W 093°51'0 0.0
2018-Feb-17 09:30N 29°58' W 093°51'0 0.0
2018-Feb-17 09:01N 29°58' W 093°51'0 0.0
2018-Feb-17 08:30N 29°58' W 093°51'0 0.0
2018-Feb-17 08:00N 29°58' W 093°51'0 0.0
2018-Feb-17 07:31N 29°58' W 093°51'0 0.0
2018-Feb-17 07:01N 29°58' W 093°51'0 0.0
2018-Feb-17 06:31N 29°58' W 093°51'0 0.0
2018-Feb-17 06:01N 29°58' W 093°51'0 0.0
2018-Feb-17 05:30N 29°58' W 093°51'0 0.0
2018-Feb-17 05:00N 29°58' W 093°51'0 0.0
2018-Feb-17 04:30N 29°58' W 093°51'0 0.0
2018-Feb-17 04:00N 29°58' W 093°51'0 0.0
2018-Feb-17 03:31N 29°58' W 093°51'0 0.0
2018-Feb-17 03:00N 29°58' W 093°51'0 0.0
2018-Feb-17 02:29N 29°58' W 093°51'0 0.0
2018-Feb-17 02:00N 29°58' W 093°51'0 0.0
2018-Feb-17 01:30N 29°58' W 093°51'0 0.0
2018-Feb-17 01:00N 29°58' W 093°51'0 0.0
2018-Feb-17 00:31N 29°58' W 093°51'0 0.0
2018-Feb-17 00:00N 29°58' W 093°51'0 0.0
2018-Feb-16 23:31N 29°58' W 093°51'0 0.0
2018-Feb-16 23:01N 29°58' W 093°51'0 0.0
2018-Feb-16 22:30N 29°58' W 093°51'0 0.0
2018-Feb-16 22:00N 29°58' W 093°51'0 0.0
2018-Feb-16 21:30N 29°58' W 093°51'0 0.0
2018-Feb-16 21:00N 29°58' W 093°51'0 0.0
2018-Feb-16 20:30N 29°58' W 093°51'0 0.0
2018-Feb-16 20:01N 29°58' W 093°51'0 0.0
2018-Feb-16 19:31N 29°58' W 093°51'0 0.0
2018-Feb-16 19:01N 29°58' W 093°51'0 0.0
2018-Feb-16 18:30N 29°58' W 093°51'0 0.0
2018-Feb-16 18:00N 29°58' W 093°51'0 0.0
2018-Feb-16 17:30N 29°58' W 093°51'0 0.0
2018-Feb-16 17:00N 29°58' W 093°51'0 0.0
2018-Feb-16 16:30N 29°58' W 093°51'0 0.0
2018-Feb-16 16:01N 29°58' W 093°51'0 0.0
2018-Feb-16 15:30N 29°58' W 093°51'0 0.0
2018-Feb-16 15:00N 29°58' W 093°51'0 0.7
2018-Feb-16 14:30N 29°58' W 093°51'0 0.0
2018-Feb-16 14:00N 29°58' W 093°51'0 0.8
2018-Feb-16 13:30N 29°58' W 093°51'0 0.0
2018-Feb-16 13:00N 29°58' W 093°51'0 0.0
2018-Feb-16 12:30N 29°58' W 093°51'0 0.0
2018-Feb-16 12:00N 29°58' W 093°51'0 0.0
2018-Feb-16 11:31N 29°58' W 093°51'0 0.0
2018-Feb-16 11:01N 29°58' W 093°51'0 0.0
2018-Feb-16 10:31N 29°58' W 093°51'0 0.0
2018-Feb-16 10:00N 29°58' W 093°51'0 0.0
2018-Feb-16 09:29N 29°58' W 093°51'0 0.0
2018-Feb-16 09:01N 29°58' W 093°51'0 0.0
2018-Feb-16 08:30N 29°58' W 093°51'0 0.0
2018-Feb-16 08:01N 29°58' W 093°51'0 0.0
2018-Feb-16 07:31N 29°58' W 093°51'0 0.0
2018-Feb-16 07:00N 29°58' W 093°51'0 0.0
2018-Feb-16 06:30N 29°58' W 093°51'0 0.0
2018-Feb-16 06:00N 29°58' W 093°51'0 0.0
2018-Feb-16 05:30N 29°58' W 093°51'0 0.0
2018-Feb-16 05:00N 29°58' W 093°51'0 0.0
2018-Feb-16 04:30N 29°58' W 093°51'0 0.0
2018-Feb-16 04:00N 29°58' W 093°51'0 0.0
2018-Feb-16 03:30N 29°58' W 093°51'0 0.0
2018-Feb-16 03:01N 29°58' W 093°51'0 0.0
2018-Feb-16 02:31N 29°58' W 093°51'0 0.0
2018-Feb-16 02:00N 29°58' W 093°51'0 0.0
2018-Feb-16 01:31N 29°58' W 093°51'0 0.0
2018-Feb-16 01:01N 29°58' W 093°51'0 0.0
2018-Feb-16 00:30N 29°58' W 093°51'0 0.0
2018-Feb-16 00:00N 29°58' W 093°51'0 0.0
2018-Feb-15 23:30N 29°58' W 093°51'0 0.0
2018-Feb-15 23:00N 29°58' W 093°51'0 0.0
2018-Feb-15 22:30N 29°58' W 093°51'0 0.0
2018-Feb-15 21:58N 29°58' W 093°51'0 0.0
2018-Feb-15 21:30N 29°58' W 093°51'0 0.0
2018-Feb-15 21:00N 29°58' W 093°51'0 0.0
2018-Feb-15 20:31N 29°58' W 093°51'0 0.0
2018-Feb-15 20:01N 29°58' W 093°51'0 0.0
2018-Feb-15 19:30N 29°58' W 093°51'0 0.0
2018-Feb-15 18:59N 29°58' W 093°51'0 0.0
2018-Feb-15 18:30N 29°58' W 093°51'0 0.0
2018-Feb-15 17:59N 29°58' W 093°51'0 0.0
2018-Feb-15 17:31N 29°58' W 093°51'0 0.3
2018-Feb-15 17:01N 29°58' W 093°51'0 0.0
2018-Feb-15 16:30N 29°58' W 093°51'0 0.0
2018-Feb-15 16:00N 29°58' W 093°51'0 0.0
2018-Feb-15 15:30N 29°58' W 093°51'0 0.0
2018-Feb-15 15:00N 29°58' W 093°51'0 0.0
2018-Feb-15 14:30N 29°58' W 093°51'0 0.0
2018-Feb-15 14:00N 29°58' W 093°51'0 0.0
2018-Feb-15 13:30N 29°58' W 093°51'0 0.0
2018-Feb-15 12:59N 29°58' W 093°51'0 0.0
2018-Feb-15 12:30N 29°58' W 093°51'0 0.0
2018-Feb-15 12:00N 29°58' W 093°51'0 0.0
2018-Feb-15 11:30N 29°58' W 093°51'0 0.0
2018-Feb-15 11:00N 29°58' W 093°51'0 0.0
2018-Feb-15 10:30N 29°58' W 093°51'0 0.0
2018-Feb-15 10:00N 29°58' W 093°51'0 0.0
2018-Feb-15 09:30N 29°58' W 093°51'0 0.0
2018-Feb-15 09:00N 29°58' W 093°51'0 0.0
2018-Feb-15 08:30N 29°58' W 093°51'0 0.0
2018-Feb-15 08:00N 29°58' W 093°51'0 0.0
2018-Feb-15 07:30N 29°58' W 093°51'0 0.0
2018-Feb-15 07:00N 29°58' W 093°51'0 0.0
2018-Feb-15 06:30N 29°58' W 093°51'0 0.0
2018-Feb-15 06:00N 29°58' W 093°51'0 0.0
2018-Feb-15 05:30N 29°58' W 093°51'0 0.0
2018-Feb-15 05:00N 29°58' W 093°51'0 0.0
2018-Feb-15 04:30N 29°58' W 093°51'0 0.0
2018-Feb-15 04:00N 29°58' W 093°51'0 0.0
2018-Feb-15 03:29N 29°58' W 093°51'0 0.0
2018-Feb-15 03:00N 29°58' W 093°51'0 0.0
2018-Feb-15 02:30N 29°58' W 093°51'0 0.0
2018-Feb-15 02:00N 29°58' W 093°51'0 0.0
2018-Feb-15 01:30N 29°58' W 093°51'0 0.0
2018-Feb-15 01:00N 29°58' W 093°51'0 0.0
2018-Feb-15 00:30N 29°58' W 093°51'0 0.0
2018-Feb-15 00:00N 29°58' W 093°51'0 0.0
2018-Feb-14 23:30N 29°58' W 093°51'0 0.0
2018-Feb-14 23:00N 29°58' W 093°51'0 0.3
2018-Feb-14 22:30N 29°58' W 093°51'0 0.0
2018-Feb-14 22:00N 29°58' W 093°51'0 0.0
2018-Feb-14 21:29N 29°58' W 093°51'0 0.0
2018-Feb-14 20:59N 29°58' W 093°51'0 0.0
2018-Feb-14 20:30N 29°58' W 093°51'0 0.0
2018-Feb-14 20:00N 29°58' W 093°51'0 0.0
2018-Feb-14 19:30N 29°58' W 093°51'0 0.0
2018-Feb-14 19:00N 29°58' W 093°51'0 0.0
2018-Feb-14 18:29N 29°58' W 093°51'0 0.0
2018-Feb-14 18:00N 29°58' W 093°51'0 0.0
2018-Feb-14 17:30N 29°58' W 093°51'0 0.0
2018-Feb-14 16:58N 29°58' W 093°51'0 0.0
2018-Feb-14 16:30N 29°58' W 093°51'0 0.0
2018-Feb-14 16:00N 29°58' W 093°51'0 0.0
2018-Feb-14 15:30N 29°58' W 093°51'0 0.0
2018-Feb-14 15:00N 29°58' W 093°51'0 0.0
2018-Feb-14 14:30N 29°58' W 093°51'0 0.1
2018-Feb-14 14:00N 29°58' W 093°51'0 0.3
2018-Feb-14 13:30N 29°58' W 093°51'0 0.0
2018-Feb-14 13:00N 29°58' W 093°51'0 0.0
2018-Feb-14 12:30N 29°58' W 093°51'0 0.0
2018-Feb-14 12:00N 29°58' W 093°51'0 0.0
2018-Feb-14 11:30N 29°58' W 093°51'0 0.0
2018-Feb-14 11:00N 29°58' W 093°51'0 0.0
2018-Feb-14 10:30N 29°58' W 093°51'0 0.0
2018-Feb-14 10:00N 29°58' W 093°51'0 0.0
2018-Feb-14 09:30N 29°58' W 093°51'0 0.0
2018-Feb-14 09:00N 29°58' W 093°51'0 0.0
2018-Feb-14 08:30N 29°58' W 093°51'0 0.0
2018-Feb-14 08:00N 29°58' W 093°51'0 0.0
2018-Feb-14 07:30N 29°58' W 093°51'0 0.0
2018-Feb-14 07:00N 29°58' W 093°51'0 0.0
2018-Feb-14 06:30N 29°58' W 093°51'0 0.0
2018-Feb-14 06:00N 29°58' W 093°51'0 0.0
2018-Feb-14 05:30N 29°58' W 093°51'0 0.0
2018-Feb-14 05:00N 29°58' W 093°51'0 0.0
2018-Feb-14 04:30N 29°58' W 093°51'0 0.0
2018-Feb-14 04:00N 29°58' W 093°51'0 0.0
2018-Feb-14 03:30N 29°58' W 093°51'0 0.0
2018-Feb-14 03:00N 29°58' W 093°51'0 0.0
2018-Feb-14 02:30N 29°58' W 093°51'0 0.0
2018-Feb-14 02:00N 29°58' W 093°51'0 0.0
2018-Feb-14 01:30N 29°58' W 093°51'0 0.0
2018-Feb-14 01:00N 29°58' W 093°51'0 0.0
2018-Feb-14 00:30N 29°58' W 093°51'0 0.0
2018-Feb-14 00:00N 29°58' W 093°51'0 0.0
2018-Feb-13 23:30N 29°58' W 093°51'0 0.0
2018-Feb-13 23:00N 29°58' W 093°51'0 0.0
2018-Feb-13 22:30N 29°58' W 093°51'0 0.0
2018-Feb-13 22:00N 29°58' W 093°51'0 0.0
2018-Feb-13 21:30N 29°58' W 093°51'0 0.0
2018-Feb-13 21:00N 29°58' W 093°51'0 0.0
2018-Feb-13 20:30N 29°58' W 093°51'0 0.0
2018-Feb-13 20:00N 29°58' W 093°51'0 0.0
2018-Feb-13 19:30N 29°58' W 093°51'0 0.0
2018-Feb-13 19:00N 29°58' W 093°51'0 0.0
2018-Feb-13 18:30N 29°58' W 093°51'0 0.0
2018-Feb-13 18:00N 29°58' W 093°51'0 0.0
2018-Feb-13 17:30N 29°58' W 093°51'0 0.0
2018-Feb-13 17:00N 29°58' W 093°51'0 0.2
2018-Feb-13 16:30N 29°58' W 093°51'0 0.2
2018-Feb-13 16:00N 29°58' W 093°51'0 0.0
2018-Feb-13 15:30N 29°58' W 093°51'0 0.0
2018-Feb-13 15:00N 29°58' W 093°51'0 0.2
2018-Feb-13 14:30N 29°58' W 093°51'0 0.3
2018-Feb-13 14:00N 29°58' W 093°51'0 0.3
2018-Feb-13 13:30N 29°58' W 093°51'0 0.0
2018-Feb-13 13:00N 29°58' W 093°51'0 0.0
2018-Feb-13 12:30N 29°58' W 093°51'0 0.0
2018-Feb-13 12:00N 29°58' W 093°51'0 0.0
2018-Feb-13 11:30N 29°58' W 093°51'0 0.0
2018-Feb-13 11:00N 29°58' W 093°51'0 0.0
2018-Feb-13 10:30N 29°58' W 093°51'0 0.0
2018-Feb-13 10:00N 29°58' W 093°51'0 0.0
2018-Feb-13 09:30N 29°58' W 093°51'0 0.0
2018-Feb-13 09:00N 29°58' W 093°51'0 0.0
2018-Feb-13 08:30N 29°58' W 093°51'0 0.0
2018-Feb-13 08:00N 29°58' W 093°51'0 0.0
2018-Feb-13 07:30N 29°58' W 093°51'0 0.0
2018-Feb-13 07:00N 29°58' W 093°51'0 0.0
2018-Feb-13 06:30N 29°58' W 093°51'0 0.0
2018-Feb-13 06:00N 29°58' W 093°51'0 0.0
2018-Feb-13 05:30N 29°58' W 093°51'0 0.0
2018-Feb-13 05:00N 29°58' W 093°51'0 0.0
2018-Feb-13 04:30N 29°58' W 093°51'0 0.0
2018-Feb-13 04:00N 29°58' W 093°51'0 0.0
2018-Feb-13 03:30N 29°58' W 093°51'0 0.0
2018-Feb-13 03:00N 29°58' W 093°51'  

Dump ship's entire track history